createdAt,value
2022-10-23T00:01:32.636Z,41.13
2022-10-23T00:04:06.967Z,43.47
2022-10-23T00:06:34.906Z,42.30
2022-10-23T00:09:03.830Z,41.47
2022-10-23T00:11:31.301Z,41.38
2022-10-23T00:14:01.028Z,39.92
2022-10-23T00:16:28.980Z,42.70
2022-10-23T00:18:56.071Z,34.63
2022-10-23T00:21:24.152Z,39.50
2022-10-23T00:23:50.953Z,40.42
2022-10-23T00:26:18.002Z,43.67
2022-10-23T00:28:47.275Z,42.97
2022-10-23T00:31:14.562Z,42.47
2022-10-23T00:33:42.416Z,44.35
2022-10-23T00:36:12.072Z,43.90
2022-10-23T00:38:39.458Z,45.42
2022-10-23T00:41:07.593Z,43.63
2022-10-23T00:43:36.138Z,44.17
2022-10-23T00:46:03.097Z,46.78
2022-10-23T00:48:29.996Z,45.15
2022-10-23T00:50:56.899Z,44.55
2022-10-23T00:53:25.143Z,45.30
2022-10-23T00:55:54.872Z,44.75
2022-10-23T00:58:22.138Z,47.58
2022-10-23T01:00:50.637Z,45.55
2022-10-23T01:03:21.928Z,46.10
2022-10-23T01:06:06.170Z,43.53
2022-10-23T01:08:45.441Z,43.38
2022-10-23T01:11:24.706Z,47.35
2022-10-23T01:13:52.458Z,46.75
2022-10-23T01:16:27.074Z,45.75
2022-10-23T01:19:21.086Z,46.58
2022-10-23T01:22:06.604Z,46.33
2022-10-23T01:24:44.925Z,47.75
2022-10-23T01:27:34.136Z,44.17
2022-10-23T01:30:08.151Z,47.17
2022-10-23T01:32:54.284Z,45.60
2022-10-23T01:35:37.946Z,47.17
2022-10-23T01:38:16.647Z,47.50
2022-10-23T01:41:11.404Z,46.47
2022-10-23T01:43:49.706Z,47.08
2022-10-23T01:46:18.103Z,45.63
2022-10-23T01:48:51.424Z,46.63
2022-10-23T01:51:20.727Z,47.90
2022-10-23T01:53:49.711Z,43.95
2022-10-23T01:56:25.401Z,47.67
2022-10-23T01:58:55.308Z,43.88
2022-10-23T02:01:27.846Z,48.05
2022-10-23T02:06:29.206Z,50.92
2022-10-23T02:08:56.491Z,49.90
2022-10-23T02:11:23.767Z,51.30
2022-10-23T02:14:06.918Z,49.80
2022-10-23T02:16:34.370Z,50.13
2022-10-23T02:19:15.902Z,52.83
2022-10-23T02:22:06.859Z,52.25
2022-10-23T02:24:49.380Z,55.28
2022-10-23T02:27:42.816Z,55.38
2022-10-23T02:30:13.705Z,44.17
2022-10-23T02:32:51.145Z,44.50
2022-10-23T02:35:21.272Z,48.58
2022-10-23T02:37:59.413Z,44.63
2022-10-23T02:40:44.842Z,44.85
2022-10-23T02:43:24.517Z,49.05
2022-10-23T02:46:06.424Z,49.67
2022-10-23T02:48:43.504Z,45.15
2022-10-23T02:51:39.337Z,48.70
2022-10-23T02:54:18.369Z,51.42
2022-10-23T02:57:00.136Z,50.63
2022-10-23T02:59:51.402Z,50.42
2022-10-23T03:05:03.784Z,47.17
2022-10-23T03:07:33.403Z,47.40
2022-10-23T03:10:06.226Z,46.60
2022-10-23T03:12:33.604Z,49.42
2022-10-23T03:15:00.350Z,50.53
2022-10-23T03:17:27.207Z,51.45
2022-10-23T03:19:57.791Z,51.92
2022-10-23T03:22:24.718Z,53.40
2022-10-23T03:24:51.534Z,52.72
2022-10-23T03:27:18.464Z,54.92
2022-10-23T03:29:45.236Z,54.88
2022-10-23T03:32:14.241Z,53.67
2022-10-23T03:34:41.025Z,52.30
2022-10-23T03:37:09.236Z,51.88
2022-10-23T03:39:36.649Z,52.33
2022-10-23T03:42:03.565Z,52.17
2022-10-23T03:44:34.185Z,53.08
2022-10-23T03:47:01.263Z,52.50
2022-10-23T03:49:28.171Z,54.67
2022-10-23T03:52:01.688Z,56.35
2022-10-23T03:54:30.084Z,56.33
2022-10-23T03:56:57.798Z,52.53
2022-10-23T03:59:26.721Z,55.28
2022-10-23T04:01:53.916Z,55.58
2022-10-23T04:04:20.771Z,57.03
2022-10-23T04:06:47.982Z,52.40
2022-10-23T04:09:15.143Z,54.65
2022-10-23T04:11:42.203Z,54.10
2022-10-23T04:14:12.713Z,52.20
2022-10-23T04:16:39.555Z,55.10
2022-10-23T04:19:06.424Z,49.80
2022-10-23T04:21:33.913Z,54.78
2022-10-23T04:24:01.326Z,55.10
2022-10-23T04:26:29.260Z,53.33
2022-10-23T04:28:56.014Z,51.05
2022-10-23T04:31:22.809Z,52.10
2022-10-23T04:33:49.645Z,53.88
2022-10-23T04:36:32.127Z,55.72
2022-10-23T04:39:06.876Z,56.08
2022-10-23T04:41:33.722Z,54.65
2022-10-23T04:44:00.725Z,53.90
2022-10-23T04:46:27.623Z,53.92
2022-10-23T04:48:54.651Z,54.28
2022-10-23T04:51:45.196Z,54.33
2022-10-23T04:54:36.303Z,56.17
2022-10-23T04:57:21.923Z,56.17
2022-10-23T04:59:59.593Z,56.03
2022-10-23T05:02:27.702Z,60.55
2022-10-23T05:04:54.725Z,57.28
2022-10-23T05:07:34.605Z,57.63
2022-10-23T05:10:14.721Z,58.72
2022-10-23T05:12:52.137Z,59.20
2022-10-23T05:15:19.094Z,58.58
2022-10-23T05:17:50.169Z,57.85
2022-10-23T05:20:21.549Z,57.95
2022-10-23T05:22:53.099Z,59.28
2022-10-23T05:25:24.160Z,52.40
2022-10-23T05:28:01.002Z,53.90
2022-10-23T05:30:28.010Z,55.58
2022-10-23T05:32:55.270Z,57.28
2022-10-23T05:35:25.286Z,59.40
2022-10-23T05:37:54.601Z,58.42
2022-10-23T05:40:24.126Z,59.55
2022-10-23T05:42:57.206Z,59.13
2022-10-23T05:45:47.399Z,58.15
2022-10-23T05:48:35.845Z,55.13
2022-10-23T05:51:11.727Z,55.45
2022-10-23T05:53:55.095Z,57.17
2022-10-23T05:56:31.115Z,58.60
2022-10-23T05:59:20.409Z,58.08
2022-10-23T06:01:59.315Z,61.25
2022-10-23T06:04:41.951Z,58.13
2022-10-23T06:07:31.187Z,56.72
2022-10-23T06:10:04.762Z,57.22
2022-10-23T06:12:33.159Z,55.70
2022-10-23T06:15:00.193Z,53.13
2022-10-23T06:17:42.843Z,54.85
2022-10-23T06:20:10.181Z,55.27
2022-10-23T06:22:40.221Z,56.78
2022-10-23T06:25:24.234Z,56.47
2022-10-23T06:27:53.691Z,55.25
2022-10-23T06:30:20.661Z,53.08
2022-10-23T06:32:49.684Z,51.67
2022-10-23T06:35:17.054Z,51.28
2022-10-23T06:37:43.978Z,51.80
2022-10-23T06:40:26.889Z,48.65
2022-10-23T06:42:59.771Z,50.17
2022-10-23T06:45:52.405Z,50.03
2022-10-23T06:48:57.353Z,48.67
2022-10-23T06:51:29.741Z,50.67
2022-10-23T06:53:57.406Z,51.28
2022-10-23T06:56:50.195Z,49.83
2022-10-23T06:59:24.119Z,51.53
2022-10-23T07:04:19.735Z,50.13
2022-10-23T07:06:46.546Z,48.58
2022-10-23T07:09:14.000Z,50.85
2022-10-23T07:12:09.865Z,47.22
2022-10-23T07:14:45.426Z,48.42
2022-10-23T07:17:12.654Z,48.35
2022-10-23T07:19:40.087Z,47.60
2022-10-23T07:22:13.318Z,46.97
2022-10-23T07:24:46.715Z,47.63
2022-10-23T07:27:19.495Z,43.45
2022-10-23T07:29:53.912Z,45.28
2022-10-23T07:32:20.794Z,45.17
2022-10-23T07:35:06.812Z,45.50
2022-10-23T07:37:35.137Z,46.35
2022-10-23T07:40:06.180Z,45.67
2022-10-23T07:42:39.814Z,46.35
2022-10-23T07:45:08.771Z,45.22
2022-10-23T07:47:38.665Z,43.78
2022-10-23T07:50:06.054Z,42.90
2022-10-23T07:52:36.078Z,45.13
2022-10-23T07:55:09.909Z,44.33
2022-10-23T07:57:40.121Z,44.92
2022-10-23T08:00:27.239Z,45.75
2022-10-23T08:03:04.919Z,43.78
2022-10-23T08:05:32.855Z,45.45
2022-10-23T08:08:01.800Z,44.90
2022-10-23T08:10:30.138Z,46.20
2022-10-23T08:12:58.380Z,42.50
2022-10-23T08:15:45.268Z,41.05
2022-10-23T08:18:32.119Z,40.42
2022-10-23T08:21:04.173Z,39.13
2022-10-23T08:23:31.621Z,40.70
2022-10-23T08:26:00.510Z,41.35
2022-10-23T08:28:30.198Z,37.97
2022-10-23T08:30:59.255Z,38.90
2022-10-23T08:33:26.313Z,40.92
2022-10-23T08:35:53.462Z,40.95
2022-10-23T08:38:28.736Z,39.58
2022-10-23T08:40:55.767Z,39.28
2022-10-23T08:43:51.214Z,39.97
2022-10-23T08:46:37.629Z,36.85
2022-10-23T08:49:33.515Z,37.65
2022-10-23T08:52:14.129Z,38.47
2022-10-23T08:54:47.127Z,36.47
2022-10-23T08:57:16.380Z,37.47
2022-10-23T08:59:43.110Z,38.58
2022-10-23T09:02:24.796Z,37.92
2022-10-23T09:04:54.382Z,36.70
2022-10-23T09:07:44.634Z,38.90
2022-10-23T09:10:50.665Z,37.95
2022-10-23T09:13:37.102Z,36.85
2022-10-23T09:16:31.365Z,37.60
2022-10-23T09:18:58.713Z,36.78
2022-10-23T09:21:30.106Z,37.15
2022-10-23T09:23:56.903Z,38.42
2022-10-23T09:26:23.755Z,35.38
2022-10-23T09:29:02.166Z,35.33
2022-10-23T09:31:28.944Z,33.75
2022-10-23T09:33:58.708Z,32.40
2022-10-23T09:36:29.142Z,32.78
2022-10-23T09:39:01.807Z,33.70
2022-10-23T09:41:40.084Z,32.78
2022-10-23T09:44:20.658Z,32.25
2022-10-23T09:46:54.844Z,30.63
2022-10-23T09:49:23.047Z,32.40
2022-10-23T09:52:01.573Z,32.70
2022-10-23T09:54:50.571Z,33.60
2022-10-23T09:57:32.248Z,33.10
2022-10-23T10:00:07.626Z,35.30
2022-10-23T10:02:42.001Z,34.97
2022-10-23T10:05:41.960Z,34.75
2022-10-23T10:08:32.406Z,34.10
2022-10-23T10:11:21.062Z,33.72
2022-10-23T10:14:07.415Z,33.72
2022-10-23T10:16:52.378Z,33.42
2022-10-23T10:19:31.452Z,35.03
2022-10-23T10:22:32.960Z,35.30
2022-10-23T10:25:12.541Z,34.53
2022-10-23T10:28:00.355Z,34.28
2022-10-23T10:30:37.094Z,34.63
2022-10-23T10:33:16.423Z,32.28
2022-10-23T10:35:53.048Z,32.20
2022-10-23T10:38:32.099Z,31.75
2022-10-23T10:41:23.932Z,32.53
2022-10-23T10:44:07.463Z,31.90
2022-10-23T10:46:45.033Z,31.30
2022-10-23T10:49:40.385Z,30.27
2022-10-23T10:52:45.426Z,29.17
2022-10-23T10:55:21.888Z,28.40
2022-10-23T10:57:57.963Z,30.33
2022-10-23T11:00:28.639Z,28.50
2022-10-23T11:03:00.336Z,26.58
2022-10-23T11:05:41.090Z,26.75
2022-10-23T11:08:16.963Z,26.98
2022-10-23T11:10:46.853Z,25.85
2022-10-23T11:13:29.552Z,22.75
2022-10-23T11:16:01.911Z,23.65
2022-10-23T11:18:31.074Z,21.88
2022-10-23T11:20:57.856Z,23.63
2022-10-23T11:23:36.825Z,22.15
2022-10-23T11:26:25.430Z,21.13
2022-10-23T11:29:09.322Z,22.50
2022-10-23T11:31:57.193Z,22.15
2022-10-23T11:34:48.941Z,22.38
2022-10-23T11:37:20.066Z,21.38
2022-10-23T11:40:20.142Z,22.25
2022-10-23T11:42:49.071Z,22.05
2022-10-23T11:45:33.153Z,22.02
2022-10-23T11:48:19.305Z,22.02
2022-10-23T11:50:49.445Z,20.48
2022-10-23T11:53:40.012Z,19.65
2022-10-23T11:56:12.766Z,20.02
2022-10-23T11:58:55.210Z,20.38
2022-10-23T12:01:37.193Z,20.15
2022-10-23T12:04:21.459Z,18.55
2022-10-23T12:06:59.879Z,19.05
2022-10-23T12:09:28.842Z,19.27
2022-10-23T12:12:16.109Z,18.13
2022-10-23T12:14:49.006Z,18.20
2022-10-23T12:17:25.053Z,16.85
2022-10-23T12:20:03.396Z,17.27
2022-10-23T12:22:44.307Z,16.98
2022-10-23T12:25:17.181Z,17.42
2022-10-23T12:27:56.353Z,18.40
2022-10-23T12:30:48.977Z,17.48
2022-10-23T12:33:33.075Z,19.10
2022-10-23T12:36:05.935Z,17.02
2022-10-23T12:38:35.562Z,17.77
2022-10-23T12:41:26.535Z,17.25
2022-10-23T12:43:59.520Z,17.63
2022-10-23T12:46:34.490Z,18.02
2022-10-23T12:49:04.077Z,17.25
2022-10-23T12:51:33.573Z,17.20
2022-10-23T12:54:02.409Z,16.70
2022-10-23T12:56:35.735Z,17.23
2022-10-23T12:59:03.949Z,17.52
2022-10-23T13:01:33.727Z,16.60
2022-10-23T13:04:27.854Z,16.45
2022-10-23T13:07:00.957Z,17.83
2022-10-23T13:09:35.117Z,16.65
2022-10-23T13:12:36.942Z,16.27
2022-10-23T13:15:06.702Z,15.38
2022-10-23T13:17:59.096Z,15.30
2022-10-23T13:20:29.051Z,14.65
2022-10-23T13:23:01.107Z,14.25
2022-10-23T13:25:30.925Z,14.32
2022-10-23T13:28:19.407Z,14.48
2022-10-23T13:30:57.415Z,14.18
2022-10-23T13:33:26.756Z,13.65
2022-10-23T13:35:57.749Z,12.93
2022-10-23T13:38:33.516Z,13.65
2022-10-23T13:41:02.238Z,14.38
2022-10-23T13:43:30.869Z,13.85
2022-10-23T13:46:01.506Z,13.77
2022-10-23T13:48:29.172Z,14.10
2022-10-23T13:51:06.709Z,13.00
2022-10-23T13:53:33.591Z,13.07
2022-10-23T13:56:00.404Z,13.02
2022-10-23T13:58:27.196Z,12.23
2022-10-23T14:00:54.331Z,12.70
2022-10-23T14:03:24.366Z,11.77
2022-10-23T14:05:52.101Z,12.23
2022-10-23T14:08:19.335Z,11.48
2022-10-23T14:10:46.430Z,11.55
2022-10-23T14:13:13.492Z,11.02
2022-10-23T14:15:40.529Z,11.48
2022-10-23T14:18:08.379Z,10.90
2022-10-23T14:20:37.819Z,11.38
2022-10-23T14:23:04.732Z,11.38
2022-10-23T14:25:31.665Z,11.65
2022-10-23T14:27:58.571Z,11.73
2022-10-23T14:30:25.529Z,11.38
2022-10-23T14:32:52.796Z,11.75
2022-10-23T14:35:19.853Z,12.25
2022-10-23T14:37:47.053Z,12.77
2022-10-23T14:40:14.049Z,12.07
2022-10-23T14:42:41.106Z,12.52
2022-10-23T14:45:08.460Z,12.02
2022-10-23T14:47:35.472Z,11.88
2022-10-23T14:50:02.381Z,11.18
2022-10-23T14:52:29.280Z,11.18
2022-10-23T14:54:56.174Z,11.43
2022-10-23T14:57:23.209Z,11.60
2022-10-23T14:59:50.301Z,12.32
2022-10-23T15:02:17.757Z,11.80
2022-10-23T15:04:44.713Z,11.30
2022-10-23T15:07:11.609Z,11.70
2022-10-23T15:09:39.670Z,11.13
2022-10-23T15:12:07.527Z,11.40
2022-10-23T15:14:35.056Z,11.18
2022-10-23T15:17:02.881Z,11.40
2022-10-23T15:19:29.991Z,11.60
2022-10-23T15:21:56.798Z,11.30
2022-10-23T15:24:23.874Z,11.85
2022-10-23T15:26:51.903Z,12.60
2022-10-23T15:29:19.698Z,12.60
2022-10-23T15:31:58.430Z,14.13
2022-10-23T15:34:27.222Z,12.55
2022-10-23T15:36:55.997Z,11.82
2022-10-23T15:39:24.895Z,12.00
2022-10-23T15:41:57.062Z,11.82
2022-10-23T15:44:26.032Z,12.10
2022-10-23T15:46:53.263Z,12.50
2022-10-23T15:49:20.406Z,11.48
2022-10-23T15:51:47.227Z,11.30
2022-10-23T15:54:17.140Z,12.23
2022-10-23T15:56:49.215Z,11.80
2022-10-23T15:59:17.144Z,12.20
2022-10-23T16:01:44.073Z,12.52
2022-10-23T16:04:11.224Z,12.13
2022-10-23T16:06:38.507Z,12.55
2022-10-23T16:09:05.721Z,12.70
2022-10-23T16:11:35.176Z,13.55
2022-10-23T16:14:03.606Z,13.00
2022-10-23T16:16:32.047Z,13.95
2022-10-23T16:19:00.537Z,13.80
2022-10-23T16:21:30.829Z,14.18
2022-10-23T16:23:59.552Z,15.07
2022-10-23T16:26:28.817Z,14.15
2022-10-23T16:28:58.049Z,14.75
2022-10-23T16:31:25.649Z,15.10
2022-10-23T16:33:53.239Z,14.98
2022-10-23T16:36:21.061Z,14.82
2022-10-23T16:39:08.337Z,14.70
2022-10-23T16:41:53.840Z,13.75
2022-10-23T16:44:21.327Z,14.63
2022-10-23T16:47:06.338Z,16.05
2022-10-23T16:49:33.266Z,15.15
2022-10-23T16:52:00.112Z,14.85
2022-10-23T16:54:27.035Z,14.20
2022-10-23T16:56:53.859Z,14.10
2022-10-23T16:59:20.758Z,14.05
2022-10-23T17:01:47.819Z,14.90
2022-10-23T17:04:14.645Z,14.30
2022-10-23T17:06:41.874Z,13.77
2022-10-23T17:09:09.129Z,11.90
2022-10-23T17:11:38.995Z,14.18
2022-10-23T17:14:14.409Z,14.25
2022-10-23T17:16:47.058Z,13.95
2022-10-23T17:19:33.009Z,15.02
2022-10-23T17:22:02.359Z,15.10
2022-10-23T17:24:29.175Z,16.02
2022-10-23T17:26:56.216Z,15.75
2022-10-23T17:29:23.045Z,17.15
2022-10-23T17:31:51.365Z,15.25
2022-10-23T17:34:21.512Z,15.43
2022-10-23T17:36:50.930Z,15.65
2022-10-23T17:39:21.225Z,14.93
2022-10-23T17:41:48.461Z,15.35
2022-10-23T17:44:15.345Z,14.50
2022-10-23T17:46:42.285Z,14.43
2022-10-23T17:49:10.733Z,13.75
2022-10-23T17:51:38.121Z,14.65
2022-10-23T17:54:08.250Z,13.02
2022-10-23T17:56:37.597Z,15.02
2022-10-23T17:59:10.093Z,14.15
2022-10-23T18:01:37.060Z,13.75
2022-10-23T18:04:06.369Z,15.48
2022-10-23T18:06:36.389Z,14.77
2022-10-23T18:09:05.534Z,14.15
2022-10-23T18:11:38.352Z,14.77
2022-10-23T18:14:06.336Z,14.25
2022-10-23T18:16:34.672Z,12.95
2022-10-23T18:19:02.133Z,13.38
2022-10-23T18:21:29.067Z,13.50
2022-10-23T18:23:57.966Z,13.20
2022-10-23T18:26:27.479Z,13.23
2022-10-23T18:28:59.497Z,12.85
2022-10-23T18:31:30.271Z,12.18
2022-10-23T18:34:07.530Z,12.80
2022-10-23T18:36:38.740Z,11.98
2022-10-23T18:39:07.356Z,12.50
2022-10-23T18:41:36.460Z,13.07
2022-10-23T18:44:04.313Z,12.75
2022-10-23T18:46:31.388Z,12.15
2022-10-23T18:48:58.311Z,12.38
2022-10-23T18:51:35.153Z,12.88
2022-10-23T18:54:04.576Z,12.77
2022-10-23T18:56:31.661Z,13.75
2022-10-23T18:59:01.810Z,11.93
2022-10-23T19:01:30.217Z,13.13
2022-10-23T19:03:58.612Z,11.98
2022-10-23T19:06:25.967Z,11.50
2022-10-23T19:08:53.054Z,12.70
2022-10-23T19:11:22.119Z,12.10
2022-10-23T19:13:49.133Z,13.90
2022-10-23T19:16:18.145Z,12.90
2022-10-23T19:18:57.813Z,13.68
2022-10-23T19:21:31.378Z,12.57
2022-10-23T19:24:05.931Z,12.57
2022-10-23T19:26:35.821Z,11.65
2022-10-23T19:29:04.544Z,11.23
2022-10-23T19:31:31.706Z,11.77
2022-10-23T19:33:58.606Z,11.88
2022-10-23T19:36:25.623Z,12.43
2022-10-23T19:38:52.410Z,12.55
2022-10-23T19:41:19.325Z,13.25
2022-10-23T19:43:46.171Z,13.45
2022-10-23T19:46:13.035Z,12.20
2022-10-23T19:48:44.630Z,13.05
2022-10-23T19:51:13.341Z,13.23
2022-10-23T19:53:42.605Z,12.88
2022-10-23T19:56:12.323Z,13.63
2022-10-23T19:58:40.246Z,13.35
2022-10-23T20:01:16.065Z,13.25
2022-10-23T20:03:45.533Z,13.20
2022-10-23T20:06:14.185Z,13.35
2022-10-23T20:08:41.522Z,13.90
2022-10-23T20:11:09.596Z,12.75
2022-10-23T20:13:36.509Z,11.95
2022-10-23T20:16:03.461Z,11.95
2022-10-23T20:18:31.129Z,12.60
2022-10-23T20:21:01.304Z,11.70
2022-10-23T20:23:28.623Z,11.75
2022-10-23T20:26:02.886Z,11.25
2022-10-23T20:28:29.813Z,11.70
2022-10-23T20:30:56.731Z,10.75
2022-10-23T20:33:23.503Z,10.68
2022-10-23T20:35:50.321Z,10.95
2022-10-23T20:38:17.190Z,11.75
2022-10-23T20:40:43.946Z,11.55
2022-10-23T20:43:10.733Z,11.23
2022-10-23T20:45:37.505Z,11.02
2022-10-23T20:48:04.591Z,10.70
2022-10-23T20:50:31.453Z,11.27
2022-10-23T20:52:58.294Z,10.40
2022-10-23T20:55:25.056Z,10.75
2022-10-23T20:57:51.893Z,10.88
2022-10-23T21:00:18.770Z,10.48
2022-10-23T21:02:47.206Z,10.30
2022-10-23T21:05:16.887Z,9.45
2022-10-23T21:07:43.693Z,9.35
2022-10-23T21:10:10.538Z,10.05
2022-10-23T21:12:37.301Z,9.80
2022-10-23T21:15:04.450Z,8.68
2022-10-23T21:17:35.668Z,8.73
2022-10-23T21:20:03.062Z,9.15
2022-10-23T21:22:29.853Z,8.20
2022-10-23T21:24:58.422Z,8.95
2022-10-23T21:27:25.842Z,9.73
2022-10-23T21:29:52.645Z,10.85
2022-10-23T21:32:20.374Z,11.45
2022-10-23T21:34:47.185Z,11.77
2022-10-23T21:37:14.812Z,11.10
2022-10-23T21:39:42.787Z,11.85
2022-10-23T21:42:09.903Z,11.40
2022-10-23T21:44:36.871Z,11.93
2022-10-23T21:47:03.735Z,12.35
2022-10-23T21:49:30.589Z,12.57
2022-10-23T21:51:57.879Z,13.57
2022-10-23T21:54:24.755Z,13.18
2022-10-23T21:56:55.915Z,13.50
2022-10-23T21:59:27.901Z,13.98
2022-10-23T22:01:57.128Z,14.02
2022-10-23T22:04:24.073Z,12.63
2022-10-23T22:06:50.963Z,13.32
2022-10-23T22:09:20.065Z,12.63
2022-10-23T22:11:49.932Z,13.30
2022-10-23T22:14:16.968Z,11.57
2022-10-23T22:16:43.818Z,13.20
2022-10-23T22:19:12.110Z,12.38
2022-10-23T22:21:39.346Z,14.73
2022-10-23T22:24:07.394Z,14.90
2022-10-23T22:26:37.357Z,14.60
2022-10-23T22:29:11.142Z,14.68
2022-10-23T22:31:39.166Z,15.20
2022-10-23T22:34:25.058Z,15.20
2022-10-23T22:36:57.909Z,13.98
2022-10-23T22:39:24.821Z,15.82
2022-10-23T22:41:52.173Z,14.00
2022-10-23T22:44:19.166Z,14.05
2022-10-23T22:46:46.942Z,16.33
2022-10-23T22:49:13.943Z,15.95
2022-10-23T22:51:40.833Z,14.77
2022-10-23T22:54:07.866Z,15.95
2022-10-23T22:56:34.869Z,15.73
2022-10-23T22:59:02.206Z,15.57
2022-10-23T23:01:36.433Z,15.90
2022-10-23T23:04:19.744Z,13.80
2022-10-23T23:06:51.781Z,14.52
2022-10-23T23:09:18.826Z,15.88
2022-10-23T23:11:52.057Z,15.85
2022-10-23T23:14:23.450Z,16.02
2022-10-23T23:16:52.776Z,15.50
2022-10-23T23:19:19.787Z,15.90
2022-10-23T23:21:46.582Z,15.93
2022-10-23T23:24:13.481Z,16.63
2022-10-23T23:26:40.611Z,16.25
2022-10-23T23:29:07.530Z,16.17
2022-10-23T23:31:34.371Z,14.60
2022-10-23T23:34:01.211Z,14.45
2022-10-23T23:36:28.359Z,14.45
2022-10-23T23:38:56.959Z,13.90
2022-10-23T23:41:24.755Z,14.15
2022-10-23T23:43:53.723Z,13.02
2022-10-23T23:46:20.741Z,11.88
2022-10-23T23:48:49.350Z,12.60
2022-10-23T23:51:18.523Z,13.20
2022-10-23T23:53:45.393Z,12.98
2022-10-23T23:56:12.275Z,12.10
2022-10-23T23:58:39.217Z,12.77
